Time;durP1;ratioP1;P1;durP2;ratioP2;P2;SDS_P1;SDS_P2;PMS_P1;PMS_P2;Temp;Humidity;BMP_temperature;BMP_pressure;BME280_temperature;BME280_humidity;BME280_pressure;Samples;Min_cycle;Max_cycle;Signal;HPM_P1;HPM_P2
2022/11/02 00:01:04;;;;;;;15.83;8.53;;;;;;;10.26;95.11;98727.19;5163672;23;20916;-91
2022/11/02 00:03:09;;;;;;;20.93;7.40;;;;;;;10.21;95.52;98735.25;5164466;23;20604;-91
2022/11/02 00:05:13;;;;;;;22.57;9.17;;;;;;;10.19;94.60;98733.66;5162326;23;20584;-92
2022/11/02 00:07:16;;;;;;;18.10;7.67;;;;;;;10.09;94.80;98735.13;5162379;23;20643;-93
2022/11/02 00:09:19;;;;;;;12.40;6.70;;;;;;;10.05;94.93;98733.59;5139387;23;20675;-92
2022/11/02 00:11:22;;;;;;;13.87;7.90;;;;;;;10.03;95.69;98738.88;5163903;23;20561;-92
2022/11/02 00:13:25;;;;;;;13.53;7.27;;;;;;;9.97;94.89;98736.63;5190595;22;21287;-91
2022/11/02 00:15:30;;;;;;;15.90;8.33;;;;;;;9.93;95.13;98732.50;5163804;23;21127;-91
2022/11/02 00:17:33;;;;;;;10.70;6.50;;;;;;;9.89;94.28;98730.09;5163478;23;20576;-89
2022/11/02 00:19:37;;;;;;;10.23;6.80;;;;;;;9.84;95.08;98732.97;5139084;23;20580;-91
2022/11/02 00:21:41;;;;;;;17.00;6.60;;;;;;;9.84;94.09;98737.34;5191012;22;20556;-91
2022/11/02 00:23:44;;;;;;;9.03;6.43;;;;;;;9.84;94.70;98731.31;5164155;23;20580;-91
2022/11/02 00:25:49;;;;;;;14.70;6.77;;;;;;;9.82;95.57;98733.13;5163906;23;20971;-90
2022/11/02 00:27:52;;;;;;;9.90;5.90;;;;;;;9.78;94.45;98737.69;5164361;23;20577;-91
2022/11/02 00:29:55;;;;;;;9.00;5.57;;;;;;;9.76;95.01;98733.47;5188729;22;20564;-92
2022/11/02 00:31:58;;;;;;;7.50;6.60;;;;;;;9.77;94.85;98737.78;5188556;22;20583;-92
2022/11/02 00:34:05;;;;;;;7.50;5.60;;;;;;;9.76;95.49;98743.88;5161154;23;20900;-88
2022/11/02 00:36:10;;;;;;;11.87;6.27;;;;;;;9.79;95.50;98746.31;5136808;23;20661;-91
2022/11/02 00:38:13;;;;;;;13.07;5.57;;;;;;;9.79;95.41;98747.19;5161291;23;20572;-90
2022/11/02 00:40:17;;;;;;;13.23;6.40;;;;;;;9.77;94.77;98745.59;5137222;23;20620;-92
2022/11/02 00:42:20;;;;;;;11.17;5.83;;;;;;;9.73;94.50;98739.72;5135947;23;20585;-91
2022/11/02 00:44:23;;;;;;;12.43;5.23;;;;;;;9.70;95.03;98749.47;5185705;22;20636;-91
2022/11/02 00:46:26;;;;;;;22.67;6.40;;;;;;;9.69;94.89;98747.78;5187280;22;20598;-91
2022/11/02 00:48:29;;;;;;;10.15;5.68;;;;;;;9.67;94.78;98749.63;5190954;22;20572;-91
2022/11/02 00:50:33;;;;;;;17.43;6.00;;;;;;;9.68;95.65;98746.09;5134437;23;20190;-89
2022/11/02 00:52:39;;;;;;;13.30;5.50;;;;;;;9.67;94.88;98744.41;5162613;23;20621;-92
2022/11/02 00:54:43;;;;;;;12.60;5.75;;;;;;;9.63;95.41;98748.94;5136450;23;20580;-91
2022/11/02 00:56:46;;;;;;;8.43;4.90;;;;;;;9.59;95.30;98737.03;5137915;23;20181;-91
2022/11/02 00:58:49;;;;;;;8.95;4.68;;;;;;;9.57;94.95;98744.06;5160426;23;20552;-91
2022/11/02 01:00:52;;;;;;;8.13;4.70;;;;;;;9.51;94.62;98733.97;5135693;23;20204;-91
2022/11/02 01:02:55;;;;;;;12.07;5.25;;;;;;;9.49;94.94;98740.19;5162351;23;20165;-91
2022/11/02 01:04:58;;;;;;;11.93;5.03;;;;;;;9.46;94.58;98737.75;5162186;23;20174;-91
2022/11/02 01:07:01;;;;;;;14.50;4.88;;;;;;;9.46;94.96;98741.19;5135072;23;20781;-89
2022/11/02 01:09:06;;;;;;;7.85;5.40;;;;;;;9.45;94.61;98746.47;5137127;23;20269;-90
2022/11/02 01:11:11;;;;;;;6.28;4.97;;;;;;;9.45;94.84;98751.69;5136979;23;20184;-91
2022/11/02 01:13:14;;;;;;;9.18;5.00;;;;;;;9.44;94.88;98745.66;5187064;22;20189;-91
2022/11/02 01:15:17;;;;;;;16.52;4.93;;;;;;;9.43;94.72;98748.34;5160222;23;20197;-91
2022/11/02 01:17:20;;;;;;;11.52;4.93;;;;;;;9.42;94.70;98754.47;5188498;22;20592;-91
2022/11/02 01:19:24;;;;;;;7.40;4.80;;;;;;;9.40;93.90;98740.69;5138475;23;20261;-92
2022/11/02 01:21:27;;;;;;;24.87;7.20;;;;;;;9.39;94.35;98744.19;5187276;22;20692;-91
2022/11/02 01:23:32;;;;;;;9.97;4.80;;;;;;;9.40;94.83;98748.50;5161485;23;20561;-91
2022/11/02 01:25:36;;;;;;;13.05;5.30;;;;;;;9.41;95.18;98747.56;5138619;23;21375;-91
2022/11/02 01:27:41;;;;;;;18.42;5.45;;;;;;;9.39;94.69;98745.03;5164348;23;20204;-91
2022/11/02 01:29:44;;;;;;;9.65;5.03;;;;;;;9.38;95.22;98736.47;5138862;23;20170;-91
2022/11/02 01:31:47;;;;;;;10.13;4.83;;;;;;;9.38;94.97;98737.31;5163989;23;20173;-90
2022/11/02 01:33:52;;;;;;;21.15;5.97;;;;;;;9.34;95.24;98735.81;5138237;23;21020;-90
2022/11/02 01:35:56;;;;;;;26.85;6.28;;;;;;;9.33;95.69;98743.69;5138691;23;20187;-91
2022/11/02 01:38:00;;;;;;;20.90;5.60;;;;;;;9.33;95.87;98736.72;5190974;22;20258;-90
2022/11/02 01:40:03;;;;;;;22.27;5.70;;;;;;;9.31;96.14;98741.19;5159640;23;20182;-88
2022/11/02 01:42:18;;;;;;;21.60;5.70;;;;;;;9.31;97.32;98735.97;5161965;23;20177;-92
2022/11/02 01:44:27;;;;;;;13.00;5.28;;;;;;;9.33;96.77;98738.50;5189073;22;20169;-90
2022/11/02 01:46:36;;;;;;;16.02;5.70;;;;;;;9.34;96.99;98735.81;5163077;23;20170;-92
2022/11/02 01:48:43;;;;;;;10.38;4.30;;;;;;;9.32;96.33;98742.88;5163582;23;20705;-90
2022/11/02 01:50:46;;;;;;;16.40;5.10;;;;;;;9.32;96.04;98731.59;5162211;23;20208;-90
2022/11/02 01:52:49;;;;;;;15.05;5.30;;;;;;;9.32;96.01;98723.78;5162214;23;20257;-91
2022/11/02 01:54:55;;;;;;;17.40;5.20;;;;;;;9.29;96.44;98727.41;5161483;23;20180;-92
2022/11/02 01:57:03;;;;;;;16.90;5.03;;;;;;;9.28;96.13;98730.94;5162567;23;20616;-91
2022/11/02 01:59:10;;;;;;;11.27;4.32;;;;;;;9.29;96.06;98730.03;5160764;23;21031;-90
2022/11/02 02:03:59;;;;;;;19.23;5.68;;;;;;;9.26;95.79;98726.72;5215973;22;20204;-88
2022/11/02 02:06:07;;;;;;;7.15;4.68;;;;;;;9.24;96.28;98719.00;5162863;23;20236;-88
2022/11/02 02:08:13;;;;;;;8.77;4.80;;;;;;;9.25;95.59;98722.44;5163763;23;20204;-87
2022/11/02 02:10:16;;;;;;;11.82;4.70;;;;;;;9.25;95.76;98715.47;5163584;23;20174;-88
2022/11/02 02:12:20;;;;;;;15.35;4.88;;;;;;;9.25;95.70;98712.88;5188622;22;20173;-87
2022/11/02 02:14:25;;;;;;;8.77;4.30;;;;;;;9.25;95.34;98710.28;5189462;22;20565;-89
2022/11/02 02:16:39;;;;;;;14.00;4.60;;;;;;;9.25;95.53;98704.25;5189463;22;20177;-88
2022/11/02 02:18:45;;;;;;;6.70;4.22;;;;;;;9.23;95.25;98699.13;5190888;22;20173;-88
2022/11/02 02:21:01;;;;;;;8.35;4.30;;;;;;;9.23;95.76;98700.84;5164466;23;20193;-88
2022/11/02 02:23:39;;;;;;;11.40;4.90;;;;;;;9.24;95.94;98703.38;5189537;22;20172;-88
2022/11/02 02:25:52;;;;;;;14.55;4.50;;;;;;;9.24;95.14;98699.94;5217079;22;20183;-88
2022/11/02 02:28:06;;;;;;;14.82;4.75;;;;;;;9.22;95.30;98699.19;5164952;23;20240;-88
2022/11/02 02:30:10;;;;;;;16.65;5.28;;;;;;;9.22;95.23;98699.19;5165091;23;20164;-87
2022/11/02 02:32:16;;;;;;;9.25;4.40;;;;;;;9.18;95.96;98697.66;5190445;22;20199;-87
2022/11/02 02:34:21;;;;;;;4.40;4.00;;;;;;;9.19;96.47;98697.59;5163606;23;20201;-88
2022/11/02 02:36:28;;;;;;;5.28;4.53;;;;;;;9.21;96.29;98695.72;5163373;23;20264;-87
2022/11/02 02:38:34;;;;;;;11.48;4.10;;;;;;;9.21;95.31;98695.72;5163540;23;20215;-88
2022/11/02 02:40:40;;;;;;;8.77;4.72;;;;;;;9.16;95.01;98697.75;5188274;22;20169;-87
2022/11/02 02:42:47;;;;;;;5.70;3.97;;;;;;;9.16;94.92;98691.72;5164213;23;20709;-88
2022/11/02 02:45:00;;;;;;;6.53;4.32;;;;;;;9.15;96.10;98690.84;5217827;22;20542;-87
2022/11/02 02:47:08;;;;;;;9.30;4.13;;;;;;;9.18;95.63;98692.47;5188991;22;20168;-87
2022/11/02 02:49:14;;;;;;;16.75;4.50;;;;;;;9.20;95.32;98696.69;5189919;22;20260;-88
2022/11/02 02:51:21;;;;;;;9.63;4.00;;;;;;;9.18;95.37;98690.69;5190696;22;20219;-88
2022/11/02 02:53:28;;;;;;;11.02;5.05;;;;;;;9.18;95.63;98682.06;5189498;22;20708;-88
2022/11/02 02:55:36;;;;;;;24.50;4.93;;;;;;;9.17;96.22;98683.81;5163356;23;20187;-87
2022/11/02 02:57:39;;;;;;;14.25;4.43;;;;;;;9.18;96.84;98682.06;5189953;22;20257;-88
2022/11/02 02:59:44;;;;;;;10.65;4.07;;;;;;;9.19;96.39;98681.97;5190328;22;20887;-88
2022/11/02 03:01:50;;;;;;;7.13;4.25;;;;;;;9.17;96.23;98681.22;5163631;23;20182;-87
2022/11/02 03:03:54;;;;;;;12.73;4.60;;;;;;;9.18;96.47;98667.28;5206603;22;20754;-87
2022/11/02 03:06:05;;;;;;;33.60;6.60;;;;;;;9.19;96.17;98674.16;5188958;22;20587;-88
2022/11/02 03:08:16;;;;;;;24.35;5.25;;;;;;;9.20;96.13;98682.81;5188830;22;20214;-88
2022/11/02 03:10:21;;;;;;;31.30;6.13;;;;;;;9.21;96.30;98681.88;5188331;22;20202;-88
2022/11/02 03:12:38;;;;;;;27.10;6.47;;;;;;;9.20;97.21;98682.81;5189057;22;20209;-88
2022/11/02 03:14:47;;;;;;;18.23;5.13;;;;;;;9.19;96.90;98687.19;5215055;22;20199;-88
2022/11/02 03:17:05;;;;;;;8.30;4.70;;;;;;;9.18;96.81;98688.09;5190023;22;20293;-88
2022/11/02 03:19:17;;;;;;;30.92;5.10;;;;;;;9.18;96.75;98693.28;5191196;22;20196;-87
2022/11/02 03:21:25;;;;;;;14.38;4.70;;;;;;;9.17;97.02;98693.38;5214976;22;20290;-87
2022/11/02 03:23:32;;;;;;;24.80;6.13;;;;;;;9.16;97.36;98687.34;5188189;22;20364;-87
2022/11/02 03:25:40;;;;;;;18.13;4.95;;;;;;;9.17;97.09;98686.44;5187821;22;20168;-88
2022/11/02 03:27:50;;;;;;;26.33;5.80;;;;;;;9.20;96.95;98680.19;5190476;22;20164;-88
2022/11/02 03:29:56;;;;;;;52.22;7.05;;;;;;;9.20;97.67;98696.69;5215976;22;20168;-88
2022/11/02 03:32:06;;;;;;;18.88;5.13;;;;;;;9.21;97.66;98700.94;5189995;22;20177;-88
2022/11/02 03:34:16;;;;;;;17.50;4.50;;;;;;;9.22;97.90;98696.59;5189393;22;20546;-88
2022/11/02 03:36:21;;;;;;;9.57;4.38;;;;;;;9.22;98.22;98700.03;5190497;22;20617;-88
2022/11/02 03:38:25;;;;;;;12.55;4.80;;;;;;;9.24;97.97;98699.94;5187448;22;20560;-87
2022/11/02 03:40:31;;;;;;;31.70;5.43;;;;;;;9.25;98.13;98696.44;5187067;22;20177;-88
2022/11/02 03:42:35;;;;;;;15.48;5.10;;;;;;;9.24;98.22;98695.56;5215746;22;20508;-87
2022/11/02 03:44:39;;;;;;;24.88;4.82;;;;;;;9.25;97.69;98699.84;5190530;22;20551;-88
2022/11/02 03:46:44;;;;;;;17.17;5.88;;;;;;;9.23;97.26;98704.31;5190421;22;20230;-88
2022/11/02 03:48:51;;;;;;;21.13;6.80;;;;;;;9.19;96.77;98692.38;5213764;22;20168;-87
2022/11/02 03:50:55;;;;;;;23.67;6.27;;;;;;;9.18;97.15;98703.69;5240492;22;21171;-89
2022/11/02 03:53:01;;;;;;;11.90;5.30;;;;;;;9.20;97.02;98699.28;5214233;22;20947;-88
2022/11/02 03:55:07;;;;;;;14.65;4.25;;;;;;;9.22;97.12;98699.19;5213811;22;20606;-88
2022/11/02 03:57:19;;;;;;;9.10;4.50;;;;;;;9.24;96.94;98699.94;5215487;22;20217;-88
2022/11/02 03:59:22;;;;;;;9.97;5.70;;;;;;;9.23;96.47;98699.13;5188215;22;20201;-87
2022/11/02 04:01:27;;;;;;;7.90;4.55;;;;;;;9.22;96.53;98702.63;5212932;22;20914;-88
2022/11/02 04:03:32;;;;;;;4.35;3.63;;;;;;;9.23;96.88;98703.47;5187819;22;20287;-87
2022/11/02 04:05:37;;;;;;;5.20;3.75;;;;;;;9.24;97.41;98708.59;5189421;22;20255;-88
2022/11/02 04:10:13;;;;;;;9.32;4.50;;;;;;;9.25;96.80;98707.66;5213385;22;20222;-88
2022/11/02 04:14:36;;;;;;;4.50;3.70;;;;;;;9.23;96.69;98717.34;5214304;22;20188;-88
2022/11/02 04:16:43;;;;;;;4.93;4.30;;;;;;;9.22;96.78;98726.03;5189602;22;20188;-88
2022/11/02 04:21:15;;;;;;;4.97;4.47;;;;;;;9.24;97.43;98721.59;5190584;22;20616;-88
2022/11/02 04:25:42;;;;;;;9.80;4.32;;;;;;;9.26;97.56;98716.31;5212651;22;20172;-87
2022/11/02 04:27:51;;;;;;;16.77;5.28;;;;;;;9.24;96.86;98723.38;5217129;22;20182;-88
2022/11/02 04:29:58;;;;;;;12.57;4.80;;;;;;;9.24;96.62;98716.38;5188568;22;20552;-89
2022/11/02 04:32:09;;;;;;;5.38;4.55;;;;;;;9.19;96.75;98726.22;5213124;22;20168;-88
2022/11/02 04:34:11;;;;;;;5.72;3.92;;;;;;;9.17;96.99;98724.59;5189370;22;20168;-87
2022/11/02 04:36:17;;;;;;;4.63;3.95;;;;;;;9.15;97.01;98718.66;5188960;22;20203;-88
2022/11/02 04:38:39;;;;;;;4.85;4.13;;;;;;;9.14;97.13;98725.63;5189721;22;20176;-88
2022/11/02 04:41:40;;;;;;;5.07;4.25;;;;;;;9.10;97.02;98726.69;5189821;22;20215;-87
2022/11/02 04:43:11;;;;;;;6.38;4.72;;;;;;;9.07;97.55;98726.84;5189936;22;20217;-88
2022/11/02 04:45:14;;;;;;;6.15;3.80;;;;;;;9.04;98.18;98731.38;5215132;22;20624;-88
2022/11/02 04:47:17;;;;;;;4.88;4.18;;;;;;;9.05;97.20;98728.69;5214978;22;20606;-88
2022/11/02 04:49:21;;;;;;;5.80;4.40;;;;;;;9.05;97.18;98739.09;5189558;22;20177;-88
2022/11/02 04:51:27;;;;;;;9.65;4.00;;;;;;;9.05;97.08;98735.63;5189207;22;20579;-87
2022/11/02 04:53:30;;;;;;;5.72;5.07;;;;;;;9.02;96.91;98731.47;5188512;22;20177;-88
2022/11/02 04:55:35;;;;;;;4.82;3.92;;;;;;;9.05;97.12;98735.63;5213794;22;20196;-88
2022/11/02 04:57:38;;;;;;;5.00;4.10;;;;;;;9.04;97.09;98736.59;5215898;22;20186;-88
2022/11/02 04:59:41;;;;;;;4.97;4.10;;;;;;;9.05;97.17;98733.91;5214794;22;20180;-88
2022/11/02 05:01:45;;;;;;;7.28;5.30;;;;;;;9.04;96.92;98736.59;5214909;22;20557;-88
2022/11/02 05:03:51;;;;;;;7.63;4.30;;;;;;;9.05;96.95;98731.31;5214373;22;20196;-88
2022/11/02 05:05:55;;;;;;;5.90;4.60;;;;;;;9.09;97.65;98739.78;5188385;22;20176;-88
2022/11/02 05:08:00;;;;;;;5.27;3.63;;;;;;;9.13;97.58;98736.94;5186937;22;20183;-88
2022/11/02 05:10:05;;;;;;;5.75;4.40;;;;;;;9.17;97.50;98735.88;5213438;22;20912;-88
2022/11/02 05:12:09;;;;;;;7.95;4.05;;;;;;;9.22;98.34;98738.22;5213815;22;20639;-87
2022/11/02 05:14:13;;;;;;;5.40;3.90;;;;;;;9.26;98.34;98730.19;5213971;22;20567;-87
2022/11/02 05:16:16;;;;;;;4.50;3.78;;;;;;;9.31;98.10;98740.34;5188402;22;20247;-88
2022/11/02 05:18:21;;;;;;;4.70;4.20;;;;;;;9.31;97.78;98740.34;5213441;22;20183;-88
2022/11/02 05:20:29;;;;;;;7.53;4.13;;;;;;;9.33;97.42;98746.31;5189533;22;20203;-88
2022/11/02 05:22:33;;;;;;;5.20;4.10;;;;;;;9.31;97.23;98741.19;5187827;22;20609;-87
2022/11/02 05:24:37;;;;;;;3.90;3.50;;;;;;;9.30;96.88;98739.50;5189756;22;20175;-88
2022/11/02 05:26:42;;;;;;;6.00;4.20;;;;;;;9.31;96.42;98748.97;5188394;22;20593;-87
2022/11/02 05:28:45;;;;;;;9.85;3.65;;;;;;;9.29;96.95;98742.16;5186881;22;21113;-88
2022/11/02 05:30:48;;;;;;;4.43;3.55;;;;;;;9.24;96.11;98746.78;5213334;22;20180;-88
2022/11/02 05:32:55;;;;;;;5.15;3.72;;;;;;;9.19;96.43;98752.22;5189991;22;20624;-87
2022/11/02 05:34:58;;;;;;;4.70;3.67;;;;;;;9.17;95.86;98751.47;5215818;22;20221;-88
2022/11/02 05:37:02;;;;;;;5.00;3.65;;;;;;;9.15;95.58;98752.47;5189018;22;20608;-88
2022/11/02 05:39:05;;;;;;;6.63;3.90;;;;;;;9.13;95.49;98744.75;5214370;22;20579;-88
2022/11/02 05:41:12;;;;;;;3.97;3.40;;;;;;;9.12;95.94;98752.63;5188432;22;20933;-88
2022/11/02 05:43:16;;;;;;;9.10;4.03;;;;;;;9.10;95.57;98747.50;5215569;22;20587;-88
2022/11/02 05:45:19;;;;;;;6.40;3.67;;;;;;;9.06;96.17;98751.16;5188477;22;20165;-88
2022/11/02 05:47:26;;;;;;;6.60;3.55;;;;;;;9.05;96.23;98746.91;5189266;22;20264;-88
2022/11/02 05:49:29;;;;;;;4.93;3.80;;;;;;;9.07;96.13;98758.06;5216890;22;20597;-88
2022/11/02 05:51:32;;;;;;;6.80;3.80;;;;;;;9.07;96.39;98752.88;5217570;22;20575;-88
2022/11/02 05:53:37;;;;;;;4.20;3.77;;;;;;;9.08;96.29;98754.56;5218193;22;20574;-88
2022/11/02 05:55:40;;;;;;;8.88;4.40;;;;;;;9.07;95.63;98752.03;5216391;22;21161;-88
2022/11/02 05:57:50;;;;;;;9.53;4.33;;;;;;;9.04;95.59;98747.81;5217734;22;20179;-88
2022/11/02 05:59:53;;;;;;;6.35;3.70;;;;;;;9.02;95.30;98743.59;5216466;22;20566;-88
2022/11/02 06:01:56;;;;;;;5.25;4.03;;;;;;;9.01;95.38;98750.56;5215245;22;20241;-88
2022/11/02 06:03:59;;;;;;;5.90;3.75;;;;;;;9.05;96.13;98748.66;5189936;22;20270;-89
2022/11/02 06:06:05;;;;;;;4.60;3.70;;;;;;;9.08;96.27;98764.09;5215645;22;20237;-88
2022/11/02 06:08:08;;;;;;;6.35;3.65;;;;;;;9.12;96.93;98766.47;5189278;22;20188;-88
2022/11/02 06:10:10;;;;;;;3.80;3.40;;;;;;;9.16;97.12;98761.97;5214936;22;20172;-89
2022/11/02 06:12:13;;;;;;;6.50;4.07;;;;;;;9.19;96.82;98759.22;5189980;22;20219;-89
2022/11/02 06:14:18;;;;;;;6.70;4.60;;;;;;;9.22;97.84;98767.69;5189659;22;20173;-88
2022/11/02 06:16:21;;;;;;;6.72;4.20;;;;;;;9.22;97.96;98772.88;5190705;22;20607;-88
2022/11/02 06:18:25;;;;;;;4.47;3.90;;;;;;;9.26;97.91;98774.41;5189833;22;20616;-88
2022/11/02 06:20:28;;;;;;;7.25;4.30;;;;;;;9.31;98.20;98787.19;5189364;22;20215;-88
2022/11/02 06:22:31;;;;;;;5.77;4.00;;;;;;;9.34;98.65;98790.47;5189915;22;20196;-88
2022/11/02 06:24:34;;;;;;;8.88;4.05;;;;;;;9.36;98.00;98785.19;5214614;22;21058;-87
2022/11/02 06:26:38;;;;;;;5.03;4.00;;;;;;;9.39;97.97;98785.84;5188948;22;20192;-87
2022/11/02 06:28:41;;;;;;;5.40;3.90;;;;;;;9.39;98.14;98793.66;5190422;22;20473;-88
2022/11/02 06:30:46;;;;;;;8.13;4.20;;;;;;;9.42;98.50;98796.09;5213584;22;20579;-88
2022/11/02 06:32:50;;;;;;;6.03;4.20;;;;;;;9.46;98.49;98802.84;5190356;22;20204;-88
2022/11/02 06:34:53;;;;;;;6.28;4.40;;;;;;;9.48;98.82;98795.78;5216534;22;20204;-88
2022/11/02 06:36:56;;;;;;;9.20;4.70;;;;;;;9.51;98.74;98806.88;5190702;22;20203;-89
2022/11/02 06:39:00;;;;;;;6.70;4.95;;;;;;;9.53;98.79;98810.25;5189950;22;20587;-89
2022/11/02 06:41:05;;;;;;;5.50;4.43;;;;;;;9.59;99.07;98814.28;5189860;22;20227;-88
2022/11/02 06:43:10;;;;;;;6.80;4.45;;;;;;;9.63;98.73;98831.44;5216102;22;20172;-88
2022/11/02 06:45:19;;;;;;;11.45;5.80;;;;;;;9.63;98.45;98826.22;5188705;22;20179;-88
2022/11/02 06:47:23;;;;;;;10.20;6.35;;;;;;;9.62;98.92;98833.22;5190411;22;20255;-88
2022/11/02 06:49:26;;;;;;;7.57;6.10;;;;;;;9.66;98.57;98841.69;5189095;22;20223;-88
2022/11/02 06:51:29;;;;;;;13.60;6.50;;;;;;;9.70;98.81;98843.22;5214944;22;20282;-89
2022/11/02 06:53:33;;;;;;;10.17;6.60;;;;;;;9.74;98.58;98850.78;5191390;22;20615;-88
2022/11/02 06:55:36;;;;;;;7.60;6.60;;;;;;;9.77;98.80;98855.81;5215523;22;20861;-88
2022/11/02 06:57:39;;;;;;;9.23;6.63;;;;;;;9.81;98.75;98859.94;5190555;22;20567;-88
2022/11/02 06:59:43;;;;;;;8.17;6.50;;;;;;;9.85;98.91;98864.09;5215802;22;21141;-88
2022/11/02 07:01:45;;;;;;;8.07;6.72;;;;;;;9.90;99.50;98875.09;5190165;22;20578;-88
2022/11/02 07:03:50;;;;;;;9.97;6.23;;;;;;;9.93;99.74;98873.19;5218191;22;20253;-88
2022/11/02 07:05:54;;;;;;;6.53;5.67;;;;;;;10.00;99.80;98878.94;5216140;22;20559;-88
2022/11/02 07:07:57;;;;;;;11.60;6.90;;;;;;;10.03;99.70;98878.78;5190801;22;20931;-88
2022/11/02 07:10:00;;;;;;;7.40;6.10;;;;;;;10.06;100.00;98889.88;5190837;22;20583;-88
2022/11/02 07:12:03;;;;;;;8.63;6.23;;;;;;;10.12;100.00;98886.09;5215045;22;20570;-89
2022/11/02 07:14:07;;;;;;;10.23;6.50;;;;;;;10.17;100.00;98895.34;5189837;22;20634;-88
2022/11/02 07:16:10;;;;;;;9.43;6.10;;;;;;;10.22;100.00;98898.53;5190834;22;20645;-88
2022/11/02 07:18:14;;;;;;;7.70;5.90;;;;;;;10.28;100.00;98902.56;5191277;22;20575;-88
2022/11/02 07:20:18;;;;;;;7.87;6.50;;;;;;;10.34;100.00;98905.69;5216253;22;20574;-88
2022/11/02 07:22:21;;;;;;;12.30;6.67;;;;;;;10.37;100.00;98905.50;5216814;22;20570;-88
2022/11/02 07:24:24;;;;;;;8.47;7.40;;;;;;;10.38;100.00;98908.03;5216884;22;20606;-88
2022/11/02 07:26:27;;;;;;;9.50;6.40;;;;;;;10.38;99.98;98917.63;5216106;22;20562;-88
2022/11/02 07:28:30;;;;;;;8.33;6.77;;;;;;;10.40;100.00;98921.84;5190278;22;20713;-88
2022/11/02 07:30:35;;;;;;;10.00;7.03;;;;;;;10.48;100.00;98914.44;5190229;22;20572;-88
2022/11/02 07:32:41;;;;;;;9.70;6.90;;;;;;;10.54;100.00;98924.56;5189305;22;21130;-88
2022/11/02 07:34:44;;;;;;;8.17;6.47;;;;;;;10.58;100.00;98931.25;5189278;22;20974;-88
2022/11/02 07:36:49;;;;;;;11.00;7.00;;;;;;;10.65;100.00;98937.00;5214598;22;20602;-89
2022/11/02 07:38:52;;;;;;;12.30;6.68;;;;;;;10.70;100.00;98934.97;5215489;22;20728;-89
2022/11/02 07:40:55;;;;;;;6.53;5.83;;;;;;;10.76;100.00;98930.25;5216847;22;20176;-88
2022/11/02 07:42:58;;;;;;;7.90;5.97;;;;;;;10.85;100.00;98946.25;5186614;22;21465;-87
2022/11/02 07:45:10;;;;;;;7.37;6.57;;;;;;;10.92;100.00;98944.97;5186554;22;20575;-87
2022/11/02 07:47:14;;;;;;;10.90;6.10;;;;;;;10.95;100.00;98943.97;5186485;22;21122;-86
2022/11/02 07:49:17;;;;;;;7.53;5.33;;;;;;;10.97;100.00;98948.16;5214290;22;20577;-86
2022/11/02 07:51:23;;;;;;;9.43;5.53;;;;;;;11.04;100.00;98941.66;5221391;22;20571;-86
2022/11/02 07:53:28;;;;;;;12.37;7.57;;;;;;;11.12;100.00;98939.44;5220831;22;20605;-86
2022/11/02 07:55:32;;;;;;;10.27;7.63;;;;;;;11.19;100.00;98935.59;5188494;22;20584;-86
2022/11/02 07:57:35;;;;;;;10.70;9.00;;;;;;;11.26;100.00;98938.66;5188386;22;20681;-87
2022/11/02 07:59:38;;;;;;;13.57;8.67;;;;;;;11.32;100.00;98946.97;5221646;22;20602;-88
2022/11/02 08:01:41;;;;;;;9.63;7.33;;;;;;;11.38;100.00;98941.41;5188704;22;20563;-85
2022/11/02 08:03:45;;;;;;;6.80;5.80;;;;;;;11.39;100.00;98948.31;5187221;22;20673;-86
2022/11/02 08:05:48;;;;;;;8.13;6.63;;;;;;;11.35;100.00;98946.81;5187788;22;20587;-86
2022/11/02 08:07:57;;;;;;;7.83;6.40;;;;;;;11.33;100.00;98952.13;5188866;22;20591;-86
2022/11/02 08:10:01;;;;;;;6.30;5.60;;;;;;;11.37;100.00;98952.81;5188618;22;20587;-86
2022/11/02 08:12:05;;;;;;;10.30;5.30;;;;;;;11.43;100.00;98955.91;5188267;22;21211;-87
2022/11/02 08:14:08;;;;;;;5.87;4.60;;;;;;;11.50;100.00;98952.03;5187837;22;20984;-87
2022/11/02 08:16:11;;;;;;;10.63;4.77;;;;;;;11.57;100.00;98957.75;5214098;22;20578;-90
2022/11/02 08:18:16;;;;;;;10.63;5.23;;;;;;;11.65;100.00;98963.34;5189583;22;20607;-90
2022/11/02 08:20:19;;;;;;;12.27;5.27;;;;;;;11.73;100.00;98954.13;5212936;22;20961;-87
2022/11/02 08:22:22;;;;;;;10.77;8.30;;;;;;;11.82;100.00;98954.44;5186109;22;20603;-87
2022/11/02 08:24:25;;;;;;;9.07;5.63;;;;;;;11.92;100.00;98945.13;5186684;22;20577;-87
2022/11/02 08:26:30;;;;;;;22.17;11.53;;;;;;;12.03;100.00;98958.38;5187261;22;20578;-87
2022/11/02 08:28:35;;;;;;;8.30;6.50;;;;;;;12.14;100.00;98958.56;5186452;22;20629;-88
2022/11/02 08:30:38;;;;;;;10.27;6.10;;;;;;;12.22;100.00;98953.69;5183489;22;20595;-88
2022/11/02 08:32:42;;;;;;;11.90;5.70;;;;;;;12.31;100.00;98960.97;5211527;22;20620;-88
2022/11/02 08:34:45;;;;;;;11.37;5.40;;;;;;;12.31;100.00;98964.47;5209945;22;20608;-88
2022/11/02 08:36:48;;;;;;;8.93;5.27;;;;;;;12.38;100.00;98959.69;5185962;22;20575;-88
2022/11/02 08:38:51;;;;;;;10.57;5.00;;;;;;;12.45;100.00;98963.63;5211279;22;20914;-88
2022/11/02 08:40:55;;;;;;;8.17;5.20;;;;;;;12.56;100.00;98958.56;5212697;22;20574;-90
2022/11/02 08:43:00;;;;;;;8.30;5.33;;;;;;;12.67;100.00;98967.41;5211868;22;20566;-88
2022/11/02 08:45:04;;;;;;;14.70;10.87;;;;;;;12.76;100.00;98967.69;5186714;22;20613;-88
2022/11/02 08:47:23;;;;;;;8.50;5.03;;;;;;;12.87;100.00;98969.63;5186641;22;21018;-89
2022/11/02 08:49:28;;;;;;;7.70;4.03;;;;;;;12.99;100.00;98972.31;5186508;22;20634;-88
2022/11/02 08:51:31;;;;;;;6.03;4.10;;;;;;;13.11;100.00;98974.16;5186669;22;20634;-88
2022/11/02 08:53:34;;;;;;;6.37;4.53;;;;;;;13.21;100.00;98980.47;5210934;22;20620;-89
2022/11/02 08:55:37;;;;;;;8.20;5.00;;;;;;;13.30;99.22;98974.63;5210092;22;20578;-89
2022/11/02 08:57:46;;;;;;;6.07;4.37;;;;;;;13.39;98.94;98976.66;5185473;22;20604;-89
2022/11/02 08:59:51;;;;;;;8.73;4.03;;;;;;;13.45;98.53;98977.09;5186931;22;20937;-89
2022/11/02 09:01:54;;;;;;;6.30;4.00;;;;;;;13.53;98.81;98981.84;5186773;22;20579;-90
2022/11/02 09:03:57;;;;;;;11.67;3.77;;;;;;;13.59;97.70;98986.66;5184635;22;20619;-89
2022/11/02 09:06:01;;;;;;;9.50;4.97;;;;;;;13.64;97.15;98988.88;5186555;22;20786;-88
2022/11/02 09:08:06;;;;;;;7.23;3.70;;;;;;;13.70;96.08;98985.88;5184368;22;20587;-89
2022/11/02 09:10:10;;;;;;;7.90;3.93;;;;;;;13.74;95.55;98982.09;5188201;22;20588;-89
2022/11/02 09:12:13;;;;;;;7.10;4.47;;;;;;;13.80;96.21;98984.31;5213041;22;20579;-89
2022/11/02 09:14:16;;;;;;;13.13;4.43;;;;;;;13.82;95.75;98974.56;5214835;22;20574;-90
2022/11/02 09:16:20;;;;;;;8.30;4.00;;;;;;;13.85;95.20;98978.75;5189187;22;20560;-90
2022/11/02 09:18:24;;;;;;;9.83;3.93;;;;;;;13.89;95.16;98986.31;5214348;22;21069;-90
2022/11/02 09:20:27;;;;;;;5.90;3.60;;;;;;;13.94;94.52;98986.03;5184914;22;20694;-89
2022/11/02 09:22:30;;;;;;;7.60;3.30;;;;;;;13.96;94.27;98978.88;5186671;22;20590;-89
2022/11/02 09:24:34;;;;;;;7.53;4.10;;;;;;;14.02;93.45;98983.72;5187200;22;21169;-89
2022/11/02 09:26:37;;;;;;;11.40;9.03;;;;;;;14.04;93.61;98982.63;5215560;22;20578;-90
2022/11/02 09:28:40;;;;;;;12.27;8.90;;;;;;;14.07;93.67;98984.25;5214633;22;20575;-89
2022/11/02 09:30:43;;;;;;;20.90;17.13;;;;;;;14.11;92.82;98986.56;5190416;22;20566;-90
2022/11/02 09:32:55;;;;;;;11.83;5.80;;;;;;;14.15;93.05;98982.81;5214570;22;20572;-89
2022/11/02 09:34:58;;;;;;;8.73;4.00;;;;;;;14.17;91.93;98979.13;5189886;22;20569;-89
2022/11/02 09:37:01;;;;;;;8.40;3.83;;;;;;;14.21;92.39;98982.38;5189573;22;20589;-89
2022/11/02 09:39:04;;;;;;;6.90;3.60;;;;;;;14.22;91.81;98989.28;5189017;22;20605;-89
2022/11/02 09:41:14;;;;;;;9.17;3.80;;;;;;;14.27;92.63;98985.41;5213967;22;20663;-89
2022/11/02 09:43:22;;;;;;;8.33;3.60;;;;;;;14.30;92.15;98977.34;5191031;22;20587;-90
2022/11/02 09:45:34;;;;;;;6.33;3.53;;;;;;;14.31;93.14;98979.03;5214966;22;20587;-89
2022/11/02 09:47:42;;;;;;;7.80;3.97;;;;;;;14.37;93.10;98981.22;5214112;22;21374;-89
2022/11/02 09:50:12;;;;;;;5.50;3.63;;;;;;;14.40;92.55;98988.91;5216740;22;20571;-90
2022/11/02 09:52:22;;;;;;;4.43;3.03;;;;;;;14.39;92.28;98987.19;5188594;22;20591;-90
2022/11/02 09:54:29;;;;;;;7.53;3.80;;;;;;;14.38;91.91;98987.31;5214933;22;20558;-90
2022/11/02 09:56:33;;;;;;;5.43;3.47;;;;;;;14.37;92.41;98988.25;5189705;22;20631;-90
2022/11/02 09:58:39;;;;;;;8.97;5.33;;;;;;;14.35;91.87;98995.41;5188505;22;20614;-90
2022/11/02 10:00:45;;;;;;;8.27;3.53;;;;;;;14.34;92.61;99002.44;5191386;22;20669;-90
2022/11/02 10:02:55;;;;;;;8.23;3.80;;;;;;;14.35;92.04;99003.25;5188757;22;20547;-90